Time;durP1;ratioP1;P1;durP2;ratioP2;P2;SDS_P1;SDS_P2;PMS_P1;PMS_P2;Temp;Humidity;BMP_temperature;BMP_pressure;BME280_temperature;BME280_humidity;BME280_pressure;Samples;Min_cycle;Max_cycle;Signal;HPM_P1;HPM_P2
2021/04/30 00:00:03;;;;;;;;;;;;;;;;;;5081677;28;36852;-72
2021/04/30 00:02:30;;;;;;;;;;;;;;;;;;5082386;28;32797;-71
2021/04/30 00:04:56;;;;;;;;;;;;;;;;;;5081646;28;33918;-72
2021/04/30 00:07:21;;;;;;;;;;;;;;;;;;5081462;28;32483;-72
2021/04/30 00:09:47;;;;;;;;;;;;;;;;;;5081597;28;31944;-72
2021/04/30 00:12:12;;;;;;;;;;;;;;;;;;5081311;28;32324;-72
2021/04/30 00:14:38;;;;;;;;;;;;;;;;;;5082224;28;33547;-73
2021/04/30 00:17:03;;;;;;;;;;;;;;;;;;5081410;28;32599;-73
2021/04/30 00:19:29;;;;;;;;;;;;;;;;;;5081321;28;31882;-72
2021/04/30 00:21:54;;;;;;;;;;;;;;;;;;5097029;28;32214;-72
2021/04/30 00:24:20;;;;;;;;;;;;;;;;;;5081300;28;33527;-72
2021/04/30 00:26:45;;;;;;;;;;;;;;;;;;5080765;28;32307;-72
2021/04/30 00:29:11;;;;;;;;;;;;;;;;;;5081680;28;31856;-71
2021/04/30 00:31:36;;;;;;;;;;;;;;;;;;5080974;28;33251;-70
2021/04/30 00:34:02;;;;;;;;;;;;;;;;;;5080846;28;32831;-70
2021/04/30 00:36:27;;;;;;;;;;;;;;;;;;5080943;28;33430;-70
2021/04/30 00:38:53;;;;;;;;;;;;;;;;;;5080455;28;32067;-72
2021/04/30 00:41:18;;;;;;;;;;;;;;;;;;5081388;28;32382;-70
2021/04/30 00:43:43;;;;;;;;;;;;;;;;;;5080726;28;32795;-71
2021/04/30 00:46:09;;;;;;;;;;;;;;;;;;5081048;28;32561;-70
2021/04/30 00:48:34;;;;;;;;;;;;;;;;;;5081841;28;32386;-70
2021/04/30 00:51:00;;;;;;;;;;;;;;;;;;5081729;28;32926;-71
2021/04/30 00:53:25;;;;;;;;;;;;;;;;;;5081208;28;33516;-71
2021/04/30 00:55:51;;;;;;;;;;;;;;;;;;5081671;28;32530;-70
2021/04/30 00:58:17;;;;;;;8.13;3.50;;;;;;;;;;5079667;28;31907;-70
2021/04/30 01:00:43;;;;;;;8.02;5.10;;;;;;;;;;5080003;28;31756;-70
2021/04/30 01:03:11;;;;;;;13.18;3.92;;;;;;;;;;5079095;28;32539;-70
2021/04/30 01:05:38;;;;;;;11.05;5.20;;;;;;;;;;5082391;28;31106;-69
2021/04/30 01:08:04;;;;;;;8.77;4.38;;;;;;;;;;5083057;28;32769;-69
2021/04/30 01:10:30;;;;;;;11.05;4.25;;;;;;;;;;5083495;28;32150;-68
2021/04/30 01:12:56;;;;;;;12.25;4.32;;;;;;;;;;5081591;28;31286;-69
2021/04/30 01:15:22;;;;;;;7.53;3.95;;;;;;;;;;5082936;28;32192;-69
2021/04/30 01:17:47;;;;;;;8.95;4.30;;;;;;;;;;5081243;28;30550;-70
2021/04/30 01:20:14;;;;;;;10.90;4.85;;;;;;;;;;5083423;28;32028;-69
2021/04/30 01:22:41;;;;;;;12.45;4.50;;;;;;;;;;5083052;28;33646;-70
2021/04/30 01:25:08;;;;;;;9.00;4.78;;;;;;;;;;5082791;28;31362;-69
2021/04/30 01:27:34;;;;;;;12.30;4.88;;;;;;;;;;5083227;28;31519;-69
2021/04/30 01:30:00;;;;;;;12.43;5.50;;;;;;;;;;5082678;28;32164;-69
2021/04/30 01:32:26;;;;;;;12.18;4.93;;;;;;;;;;5083076;28;32553;-70
2021/04/30 01:34:51;;;;;;;10.88;6.05;;;;;;;;;;5082767;28;32208;-69
2021/04/30 01:37:17;;;;;;;7.72;4.40;;;;;;;;;;5082470;28;32185;-70
2021/04/30 01:39:43;;;;;;;11.77;4.13;;;;;;;;;;5064023;28;31810;-70
2021/04/30 01:42:09;;;;;;;9.10;4.30;;;;;;;;;;5083081;28;32505;-70
2021/04/30 01:44:34;;;;;;;6.63;4.70;;;;;;;;;;5082417;28;32452;-70
2021/04/30 01:47:01;;;;;;;11.30;4.57;;;;;;;;;;5082175;28;32903;-69
2021/04/30 01:49:27;;;;;;;10.57;4.70;;;;;;;;;;5080132;28;32992;-71
2021/04/30 01:51:53;;;;;;;11.38;4.53;;;;;;;;;;5082395;28;32750;-71
2021/04/30 01:54:19;;;;;;;10.00;5.35;;;;;;;;;;5082748;28;32928;-70
2021/04/30 01:56:44;;;;;;;7.68;4.75;;;;;;;;;;5082730;28;32174;-70
2021/04/30 01:59:10;;;;;;;8.55;4.63;;;;;;;;;;5082520;28;32195;-70
2021/04/30 02:01:36;;;;;;;8.00;4.82;;;;;;;;;;5081523;28;32567;-70
2021/04/30 02:04:04;;;;;;;10.05;5.35;;;;;;;;;;5082715;28;33159;-70
2021/04/30 02:06:29;;;;;;;9.30;4.78;;;;;;;;;;5080702;28;30545;-70
2021/04/30 02:08:56;;;;;;;13.82;5.47;;;;;;;;;;5082575;28;33008;-69
2021/04/30 02:11:21;;;;;;;13.45;4.97;;;;;;;;;;5081460;28;32630;-70
2021/04/30 02:13:47;;;;;;;9.32;6.30;;;;;;;;;;5082454;28;33264;-70
2021/04/30 02:16:13;;;;;;;9.13;5.18;;;;;;;;;;5082056;28;32910;-70
2021/04/30 02:18:39;;;;;;;12.88;5.03;;;;;;;;;;5082436;28;31998;-70
2021/04/30 02:21:04;;;;;;;15.65;7.00;;;;;;;;;;5082201;28;32630;-70
2021/04/30 02:23:30;;;;;;;10.70;5.60;;;;;;;;;;5082422;28;32262;-69
2021/04/30 02:25:56;;;;;;;8.18;5.13;;;;;;;;;;5081961;28;32036;-70
2021/04/30 02:28:21;;;;;;;11.88;6.00;;;;;;;;;;5082192;28;31907;-72
2021/04/30 02:30:47;;;;;;;10.95;6.70;;;;;;;;;;5080928;28;32655;-71
2021/04/30 02:33:13;;;;;;;8.23;4.85;;;;;;;;;;5079544;28;32198;-72
2021/04/30 02:35:44;;;;;;;8.35;5.68;;;;;;;;;;5082222;28;31800;-72
2021/04/30 02:38:10;;;;;;;12.82;5.80;;;;;;;;;;5081979;28;32131;-72
2021/04/30 02:40:36;;;;;;;9.85;5.75;;;;;;;;;;5082076;28;32434;-72
2021/04/30 02:43:06;;;;;;;13.55;5.95;;;;;;;;;;5081536;28;33201;-72
2021/04/30 02:45:32;;;;;;;12.50;5.82;;;;;;;;;;5080295;28;30210;-72
2021/04/30 02:47:58;;;;;;;12.43;5.80;;;;;;;;;;5081473;28;32092;-73
2021/04/30 02:50:25;;;;;;;12.27;6.22;;;;;;;;;;5081617;28;32602;-72
2021/04/30 02:52:51;;;;;;;10.32;5.85;;;;;;;;;;5081533;28;32593;-72
2021/04/30 02:55:20;;;;;;;10.63;6.13;;;;;;;;;;5081655;28;32571;-71
2021/04/30 02:57:48;;;;;;;13.10;6.10;;;;;;;;;;5081082;28;31861;-71
2021/04/30 03:00:14;;;;;;;14.43;5.88;;;;;;;;;;5081402;28;33044;-72
2021/04/30 03:02:40;;;;;;;10.40;6.68;;;;;;;;;;5081739;28;32609;-72
2021/04/30 03:05:06;;;;;;;14.77;6.38;;;;;;;;;;5081881;28;31824;-72
2021/04/30 03:07:32;;;;;;;11.10;5.88;;;;;;;;;;5080492;28;31998;-72
2021/04/30 03:09:57;;;;;;;8.98;5.93;;;;;;;;;;5081683;28;32541;-72
2021/04/30 03:12:23;;;;;;;10.68;5.75;;;;;;;;;;5080424;28;32301;-72
2021/04/30 03:14:48;;;;;;;9.70;5.30;;;;;;;;;;5079708;28;30339;-72
2021/04/30 03:17:14;;;;;;;14.82;6.57;;;;;;;;;;5097632;28;31020;-71
2021/04/30 03:19:40;;;;;;;11.88;6.47;;;;;;;;;;5081426;28;32499;-70
2021/04/30 03:22:06;;;;;;;14.48;7.10;;;;;;;;;;5080612;28;32244;-70
2021/04/30 03:24:31;;;;;;;19.20;6.25;;;;;;;;;;5081537;28;32474;-70
2021/04/30 03:26:57;;;;;;;10.40;6.57;;;;;;;;;;5079919;28;32116;-70
2021/04/30 03:29:23;;;;;;;10.38;5.85;;;;;;;;;;5080796;28;32461;-70
2021/04/30 03:31:49;;;;;;;15.95;7.35;;;;;;;;;;5081248;28;32544;-70
2021/04/30 03:34:15;;;;;;;14.65;6.25;;;;;;;;;;5078428;28;35064;-70
2021/04/30 03:36:40;;;;;;;11.45;5.90;;;;;;;;;;5096966;28;31948;-69
2021/04/30 03:39:07;;;;;;;12.82;6.05;;;;;;;;;;5081298;28;32601;-70
2021/04/30 03:41:33;;;;;;;16.17;6.38;;;;;;;;;;5081044;28;32245;-71
2021/04/30 03:43:59;;;;;;;10.05;5.80;;;;;;;;;;5078517;28;31723;-70
2021/04/30 03:46:25;;;;;;;15.27;6.38;;;;;;;;;;5080409;28;32256;-72
2021/04/30 03:48:50;;;;;;;9.25;5.97;;;;;;;;;;5080181;28;33531;-70
2021/04/30 03:51:16;;;;;;;11.90;6.40;;;;;;;;;;5078376;28;32404;-70
2021/04/30 03:53:42;;;;;;;12.63;6.43;;;;;;;;;;5080467;28;31887;-69
2021/04/30 03:56:08;;;;;;;17.70;9.07;;;;;;;;;;5081022;28;32050;-70
2021/04/30 03:58:33;;;;;;;13.20;7.03;;;;;;;;;;5080231;28;32566;-69
2021/04/30 04:00:59;;;;;;;12.07;5.82;;;;;;;;;;5080253;28;32286;-69
2021/04/30 04:03:25;;;;;;;11.32;6.55;;;;;;;;;;5081115;28;31876;-69
2021/04/30 04:05:51;;;;;;;12.20;6.70;;;;;;;;;;5080691;28;33050;-70
2021/04/30 04:08:16;;;;;;;13.50;7.32;;;;;;;;;;5095761;28;33494;-70
2021/04/30 04:10:42;;;;;;;16.35;6.72;;;;;;;;;;5062097;28;30667;-69
2021/04/30 04:13:17;;;;;;;14.60;7.45;;;;;;;;;;5080362;28;32886;-71
2021/04/30 04:15:44;;;;;;;16.92;7.45;;;;;;;;;;5080327;28;32084;-71
2021/04/30 04:18:10;;;;;;;13.68;6.80;;;;;;;;;;5079467;28;33272;-71
2021/04/30 04:20:35;;;;;;;14.18;6.85;;;;;;;;;;5080337;28;32816;-71
2021/04/30 04:23:01;;;;;;;16.08;7.32;;;;;;;;;;5080685;28;31999;-71
2021/04/30 04:25:27;;;;;;;18.88;7.35;;;;;;;;;;5079387;28;32153;-71
2021/04/30 04:27:53;;;;;;;15.93;7.45;;;;;;;;;;5079691;28;33719;-71
2021/04/30 04:30:19;;;;;;;12.85;7.32;;;;;;;;;;5078541;28;30575;-71
2021/04/30 04:32:44;;;;;;;13.52;6.80;;;;;;;;;;5080672;28;32733;-71
2021/04/30 04:35:10;;;;;;;11.90;7.25;;;;;;;;;;5080571;28;32124;-71
2021/04/30 04:37:36;;;;;;;19.48;9.10;;;;;;;;;;5077875;28;32647;-71
2021/04/30 04:40:03;;;;;;;15.35;6.82;;;;;;;;;;5083242;28;32346;-72
2021/04/30 04:42:29;;;;;;;13.50;7.22;;;;;;;;;;5083803;28;32095;-71
2021/04/30 04:44:55;;;;;;;16.23;8.27;;;;;;;;;;5084086;28;32963;-71
2021/04/30 04:47:20;;;;;;;14.38;7.55;;;;;;;;;;5083392;28;32416;-71
2021/04/30 04:49:46;;;;;;;15.15;7.25;;;;;;;;;;5083541;28;32087;-72
2021/04/30 04:52:12;;;;;;;13.20;7.60;;;;;;;;;;5083993;28;32941;-71
2021/04/30 04:54:37;;;;;;;15.70;7.85;;;;;;;;;;5081808;28;30582;-72
2021/04/30 04:57:03;;;;;;;12.30;7.30;;;;;;;;;;5083353;28;32568;-71
2021/04/30 04:59:29;;;;;;;17.80;8.00;;;;;;;;;;5082672;28;32342;-71
2021/04/30 05:01:55;;;;;;;15.30;8.35;;;;;;;;;;5083696;28;31684;-71
2021/04/30 05:04:21;;;;;;;20.55;8.25;;;;;;;;;;5083113;28;32894;-71
2021/04/30 05:06:47;;;;;;;20.25;8.70;;;;;;;;;;5083451;28;32561;-71
2021/04/30 05:09:12;;;;;;;14.25;8.20;;;;;;;;;;5083575;28;32255;-71
2021/04/30 05:11:38;;;;;;;14.98;8.90;;;;;;;;;;5083082;28;33029;-72
2021/04/30 05:14:04;;;;;;;19.08;8.63;;;;;;;;;;5082502;28;31972;-70
2021/04/30 05:16:29;;;;;;;15.98;9.23;;;;;;;;;;5098165;28;31978;-71
2021/04/30 05:18:55;;;;;;;16.05;8.52;;;;;;;;;;5082774;28;32328;-70
2021/04/30 05:21:21;;;;;;;14.40;8.43;;;;;;;;;;5082630;28;31994;-71
2021/04/30 05:23:47;;;;;;;19.20;8.98;;;;;;;;;;5083118;28;31661;-70
2021/04/30 05:26:13;;;;;;;16.48;8.57;;;;;;;;;;5082379;28;32570;-71
2021/04/30 05:28:38;;;;;;;20.90;8.85;;;;;;;;;;5083118;28;32332;-71
2021/04/30 05:31:04;;;;;;;17.20;8.77;;;;;;;;;;5083012;28;31929;-71
2021/04/30 05:33:30;;;;;;;17.83;8.60;;;;;;;;;;5082991;28;32138;-70
2021/04/30 05:35:56;;;;;;;16.55;8.63;;;;;;;;;;5082863;28;32548;-71
2021/04/30 05:38:21;;;;;;;17.33;9.02;;;;;;;;;;5081921;28;32311;-71
2021/04/30 05:40:47;;;;;;;20.10;9.32;;;;;;;;;;5082317;28;32631;-71
2021/04/30 05:43:13;;;;;;;18.35;9.55;;;;;;;;;;5082306;28;32021;-70
2021/04/30 05:45:44;;;;;;;16.00;9.13;;;;;;;;;;5085808;28;33579;-70
2021/04/30 05:48:10;;;;;;;17.73;9.00;;;;;;;;;;5079926;28;37153;-71
2021/04/30 05:50:36;;;;;;;17.00;9.20;;;;;;;;;;5081851;28;32982;-70
2021/04/30 05:53:02;;;;;;;17.92;10.55;;;;;;;;;;5082821;28;31948;-71
2021/04/30 05:55:28;;;;;;;16.23;9.85;;;;;;;;;;5082724;28;32476;-71
2021/04/30 05:57:53;;;;;;;19.10;9.50;;;;;;;;;;5082142;28;32173;-70
2021/04/30 06:00:19;;;;;;;16.65;10.18;;;;;;;;;;5082059;28;32058;-71
2021/04/30 06:02:45;;;;;;;22.33;11.93;;;;;;;;;;5081890;28;32132;-70
2021/04/30 06:05:11;;;;;;;19.70;10.25;;;;;;;;;;5081444;28;33215;-70
2021/04/30 06:07:37;;;;;;;24.30;10.07;;;;;;;;;;5082207;28;33253;-71
2021/04/30 06:10:03;;;;;;;16.15;9.20;;;;;;;;;;5081575;28;32053;-71
2021/04/30 06:12:29;;;;;;;20.02;9.40;;;;;;;;;;5081964;28;32097;-70
2021/04/30 06:14:55;;;;;;;15.00;9.07;;;;;;;;;;5081973;28;32535;-70
2021/04/30 06:17:20;;;;;;;16.02;9.30;;;;;;;;;;5081795;28;32262;-71
2021/04/30 06:19:46;;;;;;;17.00;9.15;;;;;;;;;;5080434;28;31884;-71
2021/04/30 06:22:12;;;;;;;26.42;9.75;;;;;;;;;;5080808;28;30915;-71
2021/04/30 06:24:38;;;;;;;19.13;9.18;;;;;;;;;;5082300;28;32561;-71
2021/04/30 06:27:04;;;;;;;18.25;9.68;;;;;;;;;;5081941;28;32158;-70
2021/04/30 06:29:29;;;;;;;29.35;10.75;;;;;;;;;;5082131;28;31921;-72
2021/04/30 06:31:55;;;;;;;17.40;8.52;;;;;;;;;;5082333;28;31997;-70
2021/04/30 06:34:21;;;;;;;16.52;8.43;;;;;;;;;;5082216;28;32647;-76
2021/04/30 06:36:47;;;;;;;19.25;8.60;;;;;;;;;;5081675;28;32191;-72
2021/04/30 06:39:12;;;;;;;24.05;9.25;;;;;;;;;;5081931;28;31871;-73
2021/04/30 06:41:38;;;;;;;17.55;8.63;;;;;;;;;;5082234;28;33045;-73
2021/04/30 06:44:04;;;;;;;17.63;8.77;;;;;;;;;;5082017;28;32489;-71
2021/04/30 06:46:30;;;;;;;18.77;8.95;;;;;;;;;;5081436;28;32358;-72
2021/04/30 06:48:56;;;;;;;19.38;8.63;;;;;;;;;;5079189;28;32845;-75
2021/04/30 06:51:21;;;;;;;18.10;9.18;;;;;;;;;;5080633;28;32041;-70
2021/04/30 06:53:48;;;;;;;15.93;9.07;;;;;;;;;;5082014;28;33448;-70
2021/04/30 06:56:13;;;;;;;17.73;8.63;;;;;;;;;;5079791;28;30660;-70
2021/04/30 06:58:40;;;;;;;19.25;9.63;;;;;;;;;;5079484;28;32020;-71
2021/04/30 07:01:07;;;;;;;18.08;8.80;;;;;;;;;;5081705;28;32931;-71
2021/04/30 07:03:32;;;;;;;14.77;8.70;;;;;;;;;;5079967;28;31443;-71
2021/04/30 07:05:58;;;;;;;17.00;9.20;;;;;;;;;;5081733;28;32288;-71
2021/04/30 07:08:24;;;;;;;20.00;9.50;;;;;;;;;;5082333;28;31986;-71
2021/04/30 07:10:50;;;;;;;19.50;9.65;;;;;;;;;;5083022;28;32508;-70
2021/04/30 07:13:16;;;;;;;24.55;10.10;;;;;;;;;;5081350;28;33573;-71
2021/04/30 07:15:42;;;;;;;19.50;9.38;;;;;;;;;;5080974;28;32230;-70
2021/04/30 07:18:07;;;;;;;22.27;9.48;;;;;;;;;;5097254;28;30264;-71
2021/04/30 07:20:34;;;;;;;22.17;9.95;;;;;;;;;;5082121;28;32371;-71
2021/04/30 07:23:02;;;;;;;20.48;9.18;;;;;;;;;;5080078;28;32619;-71
2021/04/30 07:25:28;;;;;;;22.48;9.30;;;;;;;;;;5081246;28;32108;-71
2021/04/30 07:27:54;;;;;;;16.52;8.38;;;;;;;;;;5080779;28;31845;-71
2021/04/30 07:30:19;;;;;;;19.50;8.48;;;;;;;;;;5081046;28;32731;-71
2021/04/30 07:32:46;;;;;;;22.58;8.15;;;;;;;;;;5082970;28;20065;-71
2021/04/30 07:35:11;;;;;;;18.98;7.35;;;;;;;;;;5081082;28;32242;-70
2021/04/30 07:37:37;;;;;;;13.77;7.35;;;;;;;;;;5080706;28;32974;-71
2021/04/30 07:40:04;;;;;;;15.88;7.38;;;;;;;;;;5081067;28;32041;-71
2021/04/30 07:42:30;;;;;;;16.08;6.38;;;;;;;;;;5080852;28;33666;-71
2021/04/30 07:44:56;;;;;;;17.30;6.97;;;;;;;;;;5081169;28;33114;-70
2021/04/30 07:47:21;;;;;;;6.03;3.95;;;;;;;;;;5080822;28;31851;-72
2021/04/30 07:49:47;;;;;;;;;;;;;;;;;;5082154;28;32644;-70
2021/04/30 07:52:12;;;;;;;;;;;;;;;;;;5081517;28;32745;-70
2021/04/30 07:54:38;;;;;;;;;;;;;;;;;;5081682;28;32484;-71
2021/04/30 07:57:05;;;;;;;15.30;6.35;;;;;;;;;;5081191;28;32709;-70
2021/04/30 07:59:31;;;;;;;12.05;6.00;;;;;;;;;;5080165;28;32633;-70
2021/04/30 08:01:56;;;;;;;8.13;5.25;;;;;;;;;;5080955;28;32605;-70
2021/04/30 08:04:22;;;;;;;14.05;5.07;;;;;;;;;;5078052;28;33027;-70
2021/04/30 08:06:48;;;;;;;13.15;5.28;;;;;;;;;;5080903;28;32028;-71
2021/04/30 08:09:13;;;;;;;16.92;5.60;;;;;;;;;;5080976;28;31985;-70
2021/04/30 08:11:39;;;;;;;12.27;5.10;;;;;;;;;;5079044;28;31809;-70
2021/04/30 08:14:09;;;;;;;14.75;5.57;;;;;;;;;;5081647;28;32145;-70
2021/04/30 08:16:35;;;;;;;23.70;5.90;;;;;;;;;;5084068;28;31833;-70
2021/04/30 08:19:01;;;;;;;21.00;6.43;;;;;;;;;;5084295;28;32163;-71
2021/04/30 08:21:28;;;;;;;12.68;5.85;;;;;;;;;;5084188;28;32607;-71
2021/04/30 08:23:53;;;;;;;14.10;6.13;;;;;;;;;;5083254;28;32408;-71
2021/04/30 08:26:19;;;;;;;15.88;6.05;;;;;;;;;;5083458;28;31714;-71
2021/04/30 08:28:45;;;;;;;14.80;6.28;;;;;;;;;;5084469;28;32969;-71
2021/04/30 08:31:10;;;;;;;17.60;5.88;;;;;;;;;;5081373;28;32594;-70
2021/04/30 08:33:36;;;;;;;12.50;5.93;;;;;;;;;;5081352;28;32291;-70
2021/04/30 08:36:02;;;;;;;17.25;6.00;;;;;;;;;;5084039;28;32536;-70
2021/04/30 08:38:28;;;;;;;12.85;6.03;;;;;;;;;;5083532;28;32820;-70
2021/04/30 08:40:53;;;;;;;19.50;5.72;;;;;;;;;;5083689;28;32642;-70
2021/04/30 08:43:19;;;;;;;14.88;6.10;;;;;;;;;;5081707;28;32261;-70
2021/04/30 08:45:46;;;;;;;16.63;6.20;;;;;;;;;;5083931;28;32016;-71
2021/04/30 08:48:13;;;;;;;14.77;6.03;;;;;;;;;;5083387;28;31987;-70
2021/04/30 08:50:40;;;;;;;12.73;5.95;;;;;;;;;;5083360;28;32678;-70
2021/04/30 08:53:06;;;;;;;11.38;4.60;;;;;;;;;;5082784;28;33141;-67
2021/04/30 08:55:32;;;;;;;11.05;5.90;;;;;;;;;;5083834;28;31979;-71
2021/04/30 08:57:57;;;;;;;15.63;6.63;;;;;;;;;;5082299;28;32073;-71
2021/04/30 09:00:28;;;;;;;16.08;6.40;;;;;;;;;;5080620;28;32625;-71
2021/04/30 09:02:54;;;;;;;15.52;6.88;;;;;;;;;;5081479;28;30889;-71
2021/04/30 09:05:21;;;;;;;13.20;7.03;;;;;;;;;;5083491;28;31913;-70
2021/04/30 09:07:48;;;;;;;15.82;6.20;;;;;;;;;;5083522;28;31859;-69
2021/04/30 09:10:14;;;;;;;7.95;4.45;;;;;;;;;;5083318;28;32390;-70
2021/04/30 09:12:41;;;;;;;11.57;4.75;;;;;;;;;;5082807;28;33150;-70
2021/04/30 09:15:07;;;;;;;13.23;6.07;;;;;;;;;;5082593;28;32009;-70
2021/04/30 09:17:34;;;;;;;14.48;5.35;;;;;;;;;;5080651;28;32206;-70
2021/04/30 09:20:03;;;;;;;15.70;6.65;;;;;;;;;;5083079;28;32546;-70
2021/04/30 09:22:30;;;;;;;19.92;7.70;;;;;;;;;;5083206;28;32284;-70
2021/04/30 09:25:06;;;;;;;18.02;6.40;;;;;;;;;;5081830;28;31930;-70
2021/04/30 09:27:34;;;;;;;14.13;6.65;;;;;;;;;;5083258;28;31970;-70
2021/04/30 09:30:32;;;;;;;14.65;5.95;;;;;;;;;;5083228;28;32647;-70
2021/04/30 09:33:33;;;;;;;10.27;6.03;;;;;;;;;;5037626;28;33174;-70
2021/04/30 09:36:01;;;;;;;18.08;6.82;;;;;;;;;;4983951;28;32923;-70
2021/04/30 09:38:33;;;;;;;12.15;6.28;;;;;;;;;;5066172;28;32945;-70
2021/04/30 09:41:01;;;;;;;18.40;7.28;;;;;;;;;;5082165;28;33174;-70
2021/04/30 09:43:40;;;;;;;16.98;5.80;;;;;;;;;;5080218;28;32291;-70
2021/04/30 09:46:21;;;;;;;12.85;7.10;;;;;;;;;;5082780;28;31906;-70
2021/04/30 09:49:00;;;;;;;17.75;7.35;;;;;;;;;;5080318;28;32940;-70
2021/04/30 09:51:41;;;;;;;14.15;6.13;;;;;;;;;;5080087;28;32448;-70
2021/04/30 09:54:22;;;;;;;16.23;7.15;;;;;;;;;;5083016;28;32773;-71
2021/04/30 09:56:49;;;;;;;17.17;6.35;;;;;;;;;;5082274;28;32012;-69
2021/04/30 09:59:24;;;;;;;11.75;6.43;;;;;;;;;;5082160;28;31989;-69
2021/04/30 10:02:02;;;;;;;19.05;7.15;;;;;;;;;;5081071;28;32571;-69
2021/04/30 10:04:31;;;;;;;14.57;6.80;;;;;;;;;;5080597;28;35337;-69
2021/04/30 10:06:57;;;;;;;14.00;6.30;;;;;;;;;;5082353;28;31965;-69
2021/04/30 10:09:27;;;;;;;10.57;6.20;;;;;;;;;;5082911;28;31934;-71
2021/04/30 10:11:53;;;;;;;20.85;8.00;;;;;;;;;;5081743;28;32398;-69
2021/04/30 10:14:18;;;;;;;13.95;6.03;;;;;;;;;;5079706;28;32224;-70
2021/04/30 10:16:44;;;;;;;13.98;6.53;;;;;;;;;;5082535;28;32137;-70
2021/04/30 10:19:10;;;;;;;16.05;6.38;;;;;;;;;;5082419;28;33047;-71
2021/04/30 10:21:39;;;;;;;12.27;6.38;;;;;;;;;;5079637;28;33580;-70
2021/04/30 10:24:07;;;;;;;10.32;5.47;;;;;;;;;;5081999;28;33074;-70
2021/04/30 10:26:33;;;;;;;11.80;6.55;;;;;;;;;;5081014;28;30474;-70
2021/04/30 10:29:04;;;;;;;13.23;7.28;;;;;;;;;;5081597;28;33043;-71
2021/04/30 10:31:31;;;;;;;13.65;6.22;;;;;;;;;;5082163;28;33489;-70
2021/04/30 10:34:10;;;;;;;13.15;6.20;;;;;;;;;;5082022;28;32281;-71
2021/04/30 10:36:41;;;;;;;13.63;6.00;;;;;;;;;;5079000;28;31876;-71
2021/04/30 10:39:08;;;;;;;14.68;6.13;;;;;;;;;;5081212;28;31971;-70
2021/04/30 10:41:33;;;;;;;9.80;5.60;;;;;;;;;;5082484;28;32416;-71
2021/04/30 10:44:13;;;;;;;12.18;6.00;;;;;;;;;;5081313;28;32174;-70
2021/04/30 10:46:39;;;;;;;14.32;6.13;;;;;;;;;;5079168;28;31983;-72
2021/04/30 10:49:07;;;;;;;8.35;5.90;;;;;;;;;;5080518;28;32042;-71
2021/04/30 10:51:34;;;;;;;18.00;5.80;;;;;;;;;;5081772;28;33573;-71
2021/04/30 10:54:18;;;;;;;19.65;7.18;;;;;;;;;;5080236;28;30678;-71
2021/04/30 10:56:44;;;;;;;24.10;7.97;;;;;;;;;;5082014;28;32830;-70
2021/04/30 10:59:09;;;;;;;16.42;7.95;;;;;;;;;;5080843;28;31975;-71
2021/04/30 11:01:36;;;;;;;12.85;6.90;;;;;;;;;;5081337;28;32555;-71
2021/04/30 11:04:08;;;;;;;15.45;7.05;;;;;;;;;;5079838;28;31873;-71
2021/04/30 11:06:44;;;;;;;17.05;6.05;;;;;;;;;;5080907;28;32618;-71
2021/04/30 11:09:10;;;;;;;;;;;;;;;;;;5080920;28;30747;-71
2021/04/30 11:11:36;;;;;;;;;;;;;;;;;;5082088;28;32830;-71
2021/04/30 11:14:01;;;;;;;;;;;;;;;;;;5082631;28;33469;-71
2021/04/30 11:16:26;;;;;;;;;;;;;;;;;;5097668;28;31826;-71
2021/04/30 11:18:52;;;;;;;;;;;;;;;;;;5082990;28;32953;-72
2021/04/30 11:21:20;;;;;;;;;;;;;;;;;;5082172;28;32860;-71
2021/04/30 11:23:47;;;;;;;;;;;;;;;;;;5082427;28;32658;-70
2021/04/30 11:26:13;;;;;;;;;;;;;;;;;;5082093;28;31916;-71
2021/04/30 11:28:38;;;;;;;;;;;;;;;;;;5082000;28;32510;-71
2021/04/30 11:31:04;;;;;;;;;;;;;;;;;;5082707;28;32876;-72
2021/04/30 11:33:29;;;;;;;;;;;;;;;;;;5079408;28;32460;-71
2021/04/30 11:35:55;;;;;;;;;;;;;;;;;;5082811;28;31705;-71
2021/04/30 11:38:20;;;;;;;;;;;;;;;;;;5082223;28;32403;-72
2021/04/30 11:40:45;;;;;;;;;;;;;;;;;;5082455;28;33408;-70
2021/04/30 11:43:11;;;;;;;;;;;;;;;;;;5081936;28;32531;-71
2021/04/30 11:45:36;;;;;;;;;;;;;;;;;;5082079;28;31671;-70
2021/04/30 11:48:02;;;;;;;;;;;;;;;;;;5080609;28;32278;-69
2021/04/30 11:50:27;;;;;;;;;;;;;;;;;;5082323;28;32719;-70
2021/04/30 11:52:53;;;;;;;;;;;;;;;;;;5082487;28;32479;-71
2021/04/30 11:55:18;;;;;;;;;;;;;;;;;;5081875;28;31817;-71
2021/04/30 11:57:44;;;;;;;;;;;;;;;;;;5080175;28;31169;-70
2021/04/30 12:00:09;;;;;;;;;;;;;;;;;;5081604;28;32867;-70
2021/04/30 12:02:37;;;;;;;;;;;;;;;;;;5082536;28;33051;-69
2021/04/30 12:05:03;;;;;;;;;;;;;;;;;;5081595;28;31826;-69
2021/04/30 12:07:32;;;;;;;;;;;;;;;;;;5081556;28;32169;-69
2021/04/30 12:09:58;;;;;;;;;;;;;;;;;;5081703;28;32890;-69
2021/04/30 12:12:23;;;;;;;;;;;;;;;;;;5082274;28;33183;-69
2021/04/30 12:14:49;;;;;;;;;;;;;;;;;;5081313;28;31976;-70
2021/04/30 12:17:14;;;;;;;;;;;;;;;;;;5081741;28;33094;-69
2021/04/30 12:19:40;;;;;;;;;;;;;;;;;;5081032;28;32877;-69
2021/04/30 12:22:05;;;;;;;;;;;;;;;;;;5081706;28;32438;-69
2021/04/30 12:24:31;;;;;;;;;;;;;;;;;;5081511;28;31845;-69
2021/04/30 12:26:56;;;;;;;;;;;;;;;;;;5081947;28;32717;-70
2021/04/30 12:29:22;;;;;;;;;;;;;;;;;;5081639;28;32998;-69
2021/04/30 12:31:47;;;;;;;;;;;;;;;;;;5081820;28;32520;-69
2021/04/30 12:34:12;;;;;;;;;;;;;;;;;;5078860;28;32719;-69
2021/04/30 12:36:38;;;;;;;;;;;;;;;;;;5081043;28;32315;-69
2021/04/30 12:39:04;;;;;;;;;;;;;;;;;;5081525;28;32870;-69
2021/04/30 12:41:29;;;;;;;;;;;;;;;;;;5081306;28;32483;-69
2021/04/30 12:43:55;;;;;;;;;;;;;;;;;;5081524;28;32777;-69
2021/04/30 12:46:21;;;;;;;;;;;;;;;;;;5081431;28;32287;-70
2021/04/30 12:48:47;;;;;;;;;;;;;;;;;;5081690;28;32917;-69
2021/04/30 12:51:12;;;;;;;;;;;;;;;;;;5081872;28;32528;-69
2021/04/30 12:53:38;;;;;;;;;;;;;;;;;;5081844;28;31847;-69
2021/04/30 12:56:03;;;;;;;;;;;;;;;;;;5080942;28;31951;-69
2021/04/30 12:58:29;;;;;;;;;;;;;;;;;;5081032;28;33512;-69
2021/04/30 13:00:54;;;;;;;;;;;;;;;;;;5083420;28;32510;-69
2021/04/30 13:03:20;;;;;;;;;;;;;;;;;;5084327;28;31755;-69
2021/04/30 13:05:45;;;;;;;;;;;;;;;;;;5100944;28;32164;-69
2021/04/30 13:08:11;;;;;;;;;;;;;;;;;;5084600;28;33836;-69
2021/04/30 13:10:36;;;;;;;;;;;;;;;;;;5084228;28;32450;-69
2021/04/30 13:13:02;;;;;;;;;;;;;;;;;;5084388;28;31732;-70
2021/04/30 13:15:27;;;;;;;;;;;;;;;;;;5084353;28;32247;-69
2021/04/30 13:17:57;;;;;;;;;;;;;;;;;;5083764;28;32810;-70
2021/04/30 13:20:27;;;;;;;;;;;;;;;;;;5084081;28;32510;-69
2021/04/30 13:22:52;;;;;;;;;;;;;;;;;;5084690;28;31808;-69
2021/04/30 13:25:18;;;;;;;;;;;;;;;;;;5082269;28;32294;-70
2021/04/30 13:27:43;;;;;;;;;;;;;;;;;;5083989;28;33405;-70
2021/04/30 13:30:09;;;;;;;;;;;;;;;;;;5084112;28;33405;-70
2021/04/30 13:32:34;;;;;;;;;;;;;;;;;;5084201;28;31737;-70
2021/04/30 13:35:00;;;;;;;;;;;;;;;;;;5083917;28;33200;-71
2021/04/30 13:37:25;;;;;;;;;;;;;;;;;;5083616;28;33863;-71
2021/04/30 13:39:51;;;;;;;;;;;;;;;;;;5083468;28;32475;-71
2021/04/30 13:42:16;;;;;;;;;;;;;;;;;;5083737;28;32758;-71
2021/04/30 13:44:42;;;;;;;;;;;;;;;;;;5084559;28;32842;-71
2021/04/30 13:47:07;;;;;;;;;;;;;;;;;;5081236;28;33882;-70
2021/04/30 13:49:32;;;;;;;;;;;;;;;;;;5083468;28;32466;-69
2021/04/30 13:51:58;;;;;;;;;;;;;;;;;;5084173;28;31768;-69
2021/04/30 13:54:23;;;;;;;;;;;;;;;;;;5083611;28;32782;-70
2021/04/30 13:56:49;;;;;;;;;;;;;;;;;;5082558;28;32553;-71
2021/04/30 13:59:14;;;;;;;;;;;;;;;;;;5082600;28;32578;-70
2021/04/30 14:01:40;;;;;;;;;;;;;;;;;;5083384;28;31785;-71
2021/04/30 14:04:05;;;;;;;;;;;;;;;;;;5084101;28;32322;-70
2021/04/30 14:06:30;;;;;;;;;;;;;;;;;;5083287;28;32813;-70
2021/04/30 14:08:56;;;;;;;;;;;;;;;;;;5083996;28;33607;-70
2021/04/30 14:11:21;;;;;;;;;;;;;;;;;;5083408;28;31925;-70
2021/04/30 14:13:47;;;;;;;;;;;;;;;;;;5083585;28;32271;-70
2021/04/30 14:16:12;;;;;;;;;;;;;;;;;;5083417;28;32790;-71
2021/04/30 14:18:38;;;;;;;;;;;;;;;;;;5083255;28;32491;-70
2021/04/30 14:21:03;;;;;;;;;;;;;;;;;;5083144;28;31695;-70
2021/04/30 14:23:29;;;;;;;;;;;;;;;;;;5083732;28;32279;-71
2021/04/30 14:25:54;;;;;;;;;;;;;;;;;;5083661;28;33498;-70
2021/04/30 14:28:20;;;;;;;;;;;;;;;;;;5083054;28;32591;-71
2021/04/30 14:30:45;;;;;;;;;;;;;;;;;;5082987;28;31711;-71
2021/04/30 14:33:11;;;;;;;;;;;;;;;;;;5083265;28;32417;-71
2021/04/30 14:35:36;;;;;;;;;;;;;;;;;;5082592;28;32764;-73
2021/04/30 14:38:02;;;;;;;;;;;;;;;;;;5082848;28;33399;-77
2021/04/30 14:40:27;;;;;;;;;;;;;;;;;;5082159;28;31890;-71
2021/04/30 14:42:52;;;;;;;;;;;;;;;;;;5082469;28;33121;-71
2021/04/30 14:45:18;;;;;;;;;;;;;;;;;;5082501;28;32918;-71
2021/04/30 14:47:43;;;;;;;;;;;;;;;;;;5082343;28;32972;-70
2021/04/30 14:50:09;;;;;;;;;;;;;;;;;;5098468;28;31830;-70
2021/04/30 14:52:34;;;;;;;;;;;;;;;;;;5083495;28;32158;-70
2021/04/30 14:55:00;;;;;;;;;;;;;;;;;;5082793;28;33881;-72
2021/04/30 14:57:31;;;;;;;;;;;;;;;;;;5082126;28;32642;-72
2021/04/30 14:59:57;;;;;;;;;;;;;;;;;;5082821;28;31777;-71
2021/04/30 15:02:23;;;;;;;;;;;;;;;;;;5082516;28;32480;-71
2021/04/30 15:04:48;;;;;;;;;;;;;;;;;;5082522;28;32673;-71
2021/04/30 15:07:14;;;;;;;;;;;;;;;;;;5080124;28;33443;-72